Time;durP1;ratioP1;P1;durP2;ratioP2;P2;SDS_P1;SDS_P2;PMS_P1;PMS_P2;Temp;Humidity;BMP_temperature;BMP_pressure;BME280_temperature;BME280_humidity;BME280_pressure;Samples;Min_cycle;Max_cycle;Signal;HPM_P1;HPM_P2
2023/02/04 00:00:29;;;;;;;0.20;0.20;;;;;;;0.40;87.32;94776.02;106688;1276;25456;-68
2023/02/04 00:03:18;;;;;;;5.90;3.50;;;;;;;0.43;87.67;94777.61;106598;1276;22789;-68
2023/02/04 00:05:46;;;;;;;1.00;0.70;;;;;;;0.49;87.50;94777.14;106563;1276;24852;-68
2023/02/04 00:08:14;;;;;;;1.50;1.20;;;;;;;0.54;87.20;94782.69;106590;1275;22644;-67
2023/02/04 00:10:42;;;;;;;0.50;0.40;;;;;;;0.58;87.04;94784.80;106628;1275;22779;-68
2023/02/04 00:13:10;;;;;;;1.40;1.00;;;;;;;0.61;86.92;94791.91;106621;1270;22798;-68
2023/02/04 00:15:39;;;;;;;0.30;0.30;;;;;;;0.68;86.98;94792.48;106957;1275;22534;-67
2023/02/04 00:18:08;;;;;;;0.30;0.30;;;;;;;0.71;87.05;94791.12;106557;1275;25638;-68
2023/02/04 00:20:36;;;;;;;0.30;0.30;;;;;;;0.76;86.95;94791.84;106801;1276;22656;-68
2023/02/04 00:23:04;;;;;;;2.00;0.80;;;;;;;0.79;87.01;94801.56;106931;1276;24406;-68
2023/02/04 00:25:33;;;;;;;1.10;0.80;;;;;;;0.84;86.85;94800.37;107019;1276;24196;-68
2023/02/04 00:28:01;;;;;;;1.00;0.60;;;;;;;0.84;86.58;94800.89;106941;1275;22518;-68
2023/02/04 00:30:31;;;;;;;4.20;2.50;;;;;;;0.82;86.43;94806.23;106995;1276;25351;-68
2023/02/04 00:33:00;;;;;;;1.80;0.90;;;;;;;0.79;86.58;94807.09;106904;1275;24247;-68
2023/02/04 00:35:28;;;;;;;2.10;1.30;;;;;;;0.82;86.49;94804.34;106744;1276;22514;-68
2023/02/04 00:37:56;;;;;;;1.70;0.80;;;;;;;0.81;86.72;94805.37;106608;1276;22524;-67
2023/02/04 00:40:25;;;;;;;1.30;0.90;;;;;;;0.81;86.53;94812.83;106619;1275;25411;-67
2023/02/04 00:42:54;;;;;;;1.20;0.70;;;;;;;0.82;86.65;94808.31;106633;1276;25278;-67
2023/02/04 00:45:22;;;;;;;1.10;0.60;;;;;;;0.79;86.31;94807.27;106661;1253;22934;-67
2023/02/04 00:47:50;;;;;;;0.20;0.20;;;;;;;0.74;86.42;94808.96;106600;1275;22641;-67
2023/02/04 00:50:19;;;;;;;0.60;0.40;;;;;;;0.76;86.26;94815.39;106664;1276;25390;-68
2023/02/04 00:52:47;;;;;;;1.30;0.80;;;;;;;0.75;86.15;94819.01;106620;1275;24660;-68
2023/02/04 00:55:17;;;;;;;1.10;0.60;;;;;;;0.72;86.38;94818.48;106622;1276;22529;-68
2023/02/04 00:57:48;;;;;;;1.70;0.80;;;;;;;0.73;86.22;94824.38;106616;1276;26496;-67
2023/02/04 01:00:17;;;;;;;1.00;0.60;;;;;;;0.74;86.34;94824.02;106629;1276;22540;-67
2023/02/04 01:02:45;;;;;;;0.90;0.60;;;;;;;0.75;86.53;94820.73;106630;1275;22655;-68
2023/02/04 01:05:14;;;;;;;1.60;0.70;;;;;;;0.76;86.50;94816.95;106626;1276;25956;-67
2023/02/04 01:07:42;;;;;;;1.10;0.50;;;;;;;0.79;86.50;94819.73;106633;1276;22526;-67
2023/02/04 01:10:10;;;;;;;0.60;0.60;;;;;;;0.80;86.30;94819.22;106566;1276;22513;-68
2023/02/04 01:12:39;;;;;;;1.00;0.50;;;;;;;0.80;86.31;94809.34;106652;1275;22580;-67
2023/02/04 01:15:08;;;;;;;1.00;0.50;;;;;;;0.78;86.18;94809.52;106978;1275;22525;-67
2023/02/04 01:17:36;;;;;;;1.30;0.50;;;;;;;0.77;86.20;94812.10;106658;1275;23911;-67
2023/02/04 01:20:05;;;;;;;1.70;0.80;;;;;;;0.76;86.36;94810.19;106674;1276;22658;-67
2023/02/04 01:22:33;;;;;;;1.50;0.80;;;;;;;0.73;86.61;94814.50;106636;1276;22534;-68
2023/02/04 01:25:02;;;;;;;1.50;0.50;;;;;;;0.71;86.42;94815.01;106680;1275;22520;-67
2023/02/04 01:27:43;;;;;;;2.70;1.00;;;;;;;0.69;86.84;94822.95;106616;1276;22617;-67
2023/02/04 01:30:13;;;;;;;1.80;0.70;;;;;;;0.65;87.02;94820.33;106632;1276;25395;-68
2023/02/04 01:32:41;;;;;;;1.70;1.00;;;;;;;0.64;86.93;94824.65;106595;1275;22583;-67
2023/02/04 01:35:10;;;;;;;0.90;0.60;;;;;;;0.60;87.00;94822.20;106643;1276;25315;-67
2023/02/04 01:37:38;;;;;;;1.00;0.70;;;;;;;0.56;87.07;94827.52;106552;1261;22513;-67
2023/02/04 01:40:08;;;;;;;1.00;0.70;;;;;;;0.54;87.45;94825.09;106653;1263;22643;-67
2023/02/04 01:42:37;;;;;;;1.70;0.90;;;;;;;0.53;87.17;94825.60;106671;1276;22549;-68
2023/02/04 01:45:06;;;;;;;0.90;0.50;;;;;;;0.53;87.13;94824.03;106633;1265;24208;-67
2023/02/04 01:47:36;;;;;;;0.30;0.20;;;;;;;0.56;87.37;94818.19;106602;1276;22530;-67
2023/02/04 01:50:09;;;;;;;0.20;0.20;;;;;;;0.55;87.36;94818.35;106593;1276;22576;-68
2023/02/04 01:52:38;;;;;;;0.30;0.30;;;;;;;0.57;87.11;94820.44;106697;1276;22656;-67
2023/02/04 01:55:29;;;;;;;0.60;0.30;;;;;;;0.59;87.13;94820.98;106629;1263;22611;-67
2023/02/04 01:57:58;;;;;;;0.80;0.50;;;;;;;0.62;87.00;94817.89;106605;1276;24367;-67
2023/02/04 02:00:30;;;;;;;1.30;0.70;;;;;;;0.65;86.94;94816.52;106654;1276;24447;-68
2023/02/04 02:02:59;;;;;;;2.30;0.70;;;;;;;0.66;86.62;94817.05;106625;1276;22623;-67
2023/02/04 02:05:35;;;;;;;1.30;0.50;;;;;;;0.66;86.39;94820.16;106663;1276;22521;-67
2023/02/04 02:08:05;;;;;;;0.50;0.40;;;;;;;0.64;86.45;94822.73;106641;1275;22658;-68
2023/02/04 02:10:35;;;;;;;0.60;0.40;;;;;;;0.70;86.52;94819.84;106624;1275;22761;-67
2023/02/04 02:13:05;;;;;;;1.40;0.60;;;;;;;0.75;86.19;94816.06;106564;1275;22532;-67
2023/02/04 02:15:38;;;;;;;2.00;0.60;;;;;;;0.76;86.10;94816.23;106711;1275;23014;-67
2023/02/04 02:18:08;;;;;;;1.80;1.10;;;;;;;0.70;86.16;94816.55;106660;1276;22552;-67
2023/02/04 02:20:37;;;;;;;0.20;0.20;;;;;;;0.68;85.99;94812.38;106752;1275;24185;-68
2023/02/04 02:23:31;;;;;;;0.20;0.20;;;;;;;0.66;85.95;94812.20;106700;1275;25355;-67
2023/02/04 02:26:00;;;;;;;0.20;0.20;;;;;;;0.66;86.12;94819.30;106653;1275;25398;-67
2023/02/04 02:28:28;;;;;;;0.60;0.40;;;;;;;0.65;85.87;94821.89;106668;1275;25604;-68
2023/02/04 02:30:56;;;;;;;2.90;0.80;;;;;;;0.64;86.11;94821.70;106677;1269;24316;-67
2023/02/04 02:33:25;;;;;;;2.30;1.00;;;;;;;0.62;86.47;94825.14;106652;1275;23150;-67
2023/02/04 02:35:53;;;;;;;6.60;2.80;;;;;;;0.59;86.38;94828.59;106695;1276;22524;-67
2023/02/04 02:38:21;;;;;;;3.70;1.80;;;;;;;0.59;86.33;94829.10;106633;1275;22523;-68
2023/02/04 02:40:51;;;;;;;8.50;3.10;;;;;;;0.56;86.47;94835.83;106596;1276;22753;-68
2023/02/04 02:43:24;;;;;;;1.30;0.80;;;;;;;0.52;86.61;94841.17;106655;1276;22570;-67
2023/02/04 02:45:55;;;;;;;1.60;0.90;;;;;;;0.44;87.19;94838.67;106713;1276;22514;-67
2023/02/04 02:48:24;;;;;;;2.00;0.80;;;;;;;0.40;87.09;94839.86;106696;1276;25323;-67
2023/02/04 02:50:52;;;;;;;2.90;1.50;;;;;;;0.34;87.80;94844.84;106606;1276;25284;-67
2023/02/04 02:53:21;;;;;;;1.70;1.20;;;;;;;0.32;87.80;94845.16;106752;1275;25380;-67
2023/02/04 02:55:50;;;;;;;2.00;1.10;;;;;;;0.33;87.62;94841.89;106561;1275;23088;-67
2023/02/04 02:58:33;;;;;;;3.00;1.90;;;;;;;0.35;87.73;94841.20;106623;1276;24394;-67
2023/02/04 03:01:06;;;;;;;5.00;2.80;;;;;;;0.39;87.69;94847.30;106578;1276;22507;-67
2023/02/04 03:03:46;;;;;;;2.90;2.00;;;;;;;0.39;88.19;94848.33;106635;1276;23297;-67
2023/02/04 03:06:25;;;;;;;4.10;2.40;;;;;;;0.42;88.01;94845.93;106619;1276;23189;-67
2023/02/04 03:08:55;;;;;;;3.10;1.70;;;;;;;0.48;88.17;94837.68;106713;1276;24260;-68
2023/02/04 03:11:26;;;;;;;3.20;1.70;;;;;;;0.50;88.03;94836.83;106636;1276;24254;-67
2023/02/04 03:13:56;;;;;;;3.60;1.70;;;;;;;0.52;87.82;94835.80;106630;1276;25476;-67
2023/02/04 03:16:25;;;;;;;2.30;1.50;;;;;;;0.54;87.74;94833.57;106650;1276;24243;-68
2023/02/04 03:18:54;;;;;;;1.50;0.90;;;;;;;0.57;87.82;94837.75;106696;1276;22663;-67
2023/02/04 03:21:22;;;;;;;1.80;0.70;;;;;;;0.60;87.64;94835.70;106619;1276;25332;-67
2023/02/04 03:23:50;;;;;;;1.30;1.00;;;;;;;0.65;87.48;94835.23;106549;1254;25645;-67
2023/02/04 03:26:18;;;;;;;3.00;2.30;;;;;;;0.68;87.51;94835.58;106603;1276;22526;-68
2023/02/04 03:28:47;;;;;;;7.00;2.80;;;;;;;0.71;87.79;94836.80;106589;1276;25376;-67
2023/02/04 03:31:15;;;;;;;3.00;2.30;;;;;;;0.70;87.80;94837.31;106586;1276;22521;-67
2023/02/04 03:33:44;;;;;;;3.80;1.80;;;;;;;0.72;87.89;94839.59;106653;1275;22647;-67
2023/02/04 03:36:12;;;;;;;3.20;2.00;;;;;;;0.72;87.86;94842.52;106619;1275;25427;-68
2023/02/04 03:38:40;;;;;;;3.60;2.10;;;;;;;0.73;87.91;94836.64;106647;1275;22529;-67
2023/02/04 03:41:08;;;;;;;5.60;2.60;;;;;;;0.73;87.92;94838.90;106613;1275;22819;-67
2023/02/04 03:49:41;;;;;;;3.10;2.00;;;;;;;0.73;87.94;94845.48;103634;1313;545522;-67
2023/02/04 03:52:09;;;;;;;3.80;3.00;;;;;;;0.64;87.93;94847.49;106104;1288;22653;-67
2023/02/04 03:54:37;;;;;;;3.50;2.60;;;;;;;0.57;88.05;94841.04;106124;1288;22525;-67
2023/02/04 03:57:05;;;;;;;4.60;2.80;;;;;;;0.55;87.88;94838.07;106611;1277;25336;-67
2023/02/04 03:59:33;;;;;;;3.30;2.30;;;;;;;0.50;88.14;94832.50;106468;1277;25414;-67
2023/02/04 04:02:02;;;;;;;4.60;2.60;;;;;;;0.45;87.90;94831.42;106575;1277;22528;-67
2023/02/04 04:04:31;;;;;;;5.00;2.70;;;;;;;0.43;87.89;94835.05;106256;1275;568903;-67
2023/02/04 04:06:59;;;;;;;3.40;2.60;;;;;;;0.44;87.90;94833.49;106685;1275;22517;-67
2023/02/04 04:09:28;;;;;;;4.40;2.50;;;;;;;0.42;88.03;94828.11;107007;1275;22516;-67
2023/02/04 04:11:56;;;;;;;4.00;3.30;;;;;;;0.36;87.78;94827.73;107014;1275;22642;-67
2023/02/04 04:14:24;;;;;;;5.50;4.30;;;;;;;0.34;88.12;94828.75;106659;1275;25281;-67
2023/02/04 04:16:52;;;;;;;4.30;2.70;;;;;;;0.33;88.16;94826.48;106804;1275;25301;-67
2023/02/04 04:19:20;;;;;;;3.60;2.30;;;;;;;0.35;88.18;94823.73;106577;1275;22541;-67
2023/02/04 04:21:49;;;;;;;3.10;2.30;;;;;;;0.38;88.39;94818.23;106665;1275;24326;-68
2023/02/04 04:24:17;;;;;;;4.00;2.30;;;;;;;0.39;88.44;94817.71;106632;1275;25275;-68
2023/02/04 04:26:45;;;;;;;3.10;2.40;;;;;;;0.41;88.34;94815.48;106613;1275;24047;-68
2023/02/04 04:29:13;;;;;;;2.80;2.20;;;;;;;0.46;88.51;94818.10;106658;1275;22537;-68
2023/02/04 04:31:43;;;;;;;3.70;2.70;;;;;;;0.51;88.55;94821.79;106763;1275;25197;-67
2023/02/04 04:34:12;;;;;;;3.20;2.10;;;;;;;0.52;88.27;94819.19;106624;1262;24255;-68
2023/02/04 04:36:40;;;;;;;5.70;2.90;;;;;;;0.57;88.48;94825.80;106831;1275;22520;-68
2023/02/04 04:39:08;;;;;;;3.40;2.20;;;;;;;0.58;88.02;94823.39;106649;1275;22540;-67
2023/02/04 04:41:37;;;;;;;3.30;2.40;;;;;;;0.57;87.95;94821.83;106644;1275;22516;-68
2023/02/04 04:44:05;;;;;;;5.60;2.80;;;;;;;0.62;88.31;94820.99;106792;1275;22654;-67
2023/02/04 04:46:33;;;;;;;3.60;2.30;;;;;;;0.68;88.30;94816.55;106729;1275;23008;-68
2023/02/04 04:49:02;;;;;;;2.80;2.10;;;;;;;0.70;87.95;94814.30;106722;1275;22643;-68
2023/02/04 04:51:31;;;;;;;2.40;1.90;;;;;;;0.64;87.59;94817.17;106968;1275;22611;-67
2023/02/04 04:53:59;;;;;;;1.90;1.50;;;;;;;0.63;87.78;94819.61;106977;1275;24231;-68
2023/02/04 04:56:27;;;;;;;1.80;1.60;;;;;;;0.60;87.65;94815.27;106974;1275;23842;-67
2023/02/04 04:58:55;;;;;;;2.20;1.80;;;;;;;0.56;87.69;94816.63;106734;1265;22642;-68
2023/02/04 05:01:23;;;;;;;2.30;1.60;;;;;;;0.52;87.75;94822.66;106598;1275;22526;-67
2023/02/04 05:03:52;;;;;;;2.50;1.90;;;;;;;0.47;87.78;94827.63;106573;1254;22789;-68
2023/02/04 05:06:24;;;;;;;2.40;1.70;;;;;;;0.43;87.82;94825.00;106591;1275;22580;-68
2023/02/04 05:08:53;;;;;;;3.00;2.00;;;;;;;0.37;87.87;94815.44;106579;1275;22536;-68
2023/02/04 05:11:21;;;;;;;2.50;1.70;;;;;;;0.34;88.04;94814.73;106653;1275;22636;-67
2023/02/04 05:13:49;;;;;;;3.80;2.30;;;;;;;0.26;88.06;94818.13;106580;1275;22517;-68
2023/02/04 05:16:17;;;;;;;2.90;1.90;;;;;;;0.23;88.02;94819.48;106577;1275;25349;-67
2023/02/04 05:18:46;;;;;;;3.50;2.30;;;;;;;0.18;87.98;94816.15;106545;1275;22643;-67
2023/02/04 05:21:14;;;;;;;5.40;3.30;;;;;;;0.12;87.90;94812.98;106566;1275;22658;-67
2023/02/04 05:23:42;;;;;;;5.90;2.90;;;;;;;0.06;87.87;94815.70;106570;1275;25473;-67
2023/02/04 05:26:10;;;;;;;2.90;2.00;;;;;;;0.03;88.13;94814.64;106529;1275;25469;-67
2023/02/04 05:28:49;;;;;;;4.00;2.00;;;;;;;-0.05;88.20;94816.64;106594;1275;24388;-67
2023/02/04 05:31:17;;;;;;;3.50;2.20;;;;;;;-0.12;88.26;94810.00;106566;1275;22513;-67
2023/02/04 05:33:45;;;;;;;2.90;2.00;;;;;;;-0.17;88.36;94812.20;106599;1275;24037;-67
2023/02/04 05:36:13;;;;;;;4.20;2.20;;;;;;;-0.23;88.33;94815.25;106558;1275;24237;-67
2023/02/04 05:38:41;;;;;;;4.20;2.90;;;;;;;-0.30;88.19;94811.04;106934;1275;25438;-67
2023/02/04 05:41:09;;;;;;;4.60;3.00;;;;;;;-0.37;88.19;94812.69;106575;1275;24255;-67
2023/02/04 05:43:38;;;;;;;3.30;2.40;;;;;;;-0.45;88.28;94811.92;106613;1275;25931;-68
2023/02/04 05:46:06;;;;;;;3.90;3.00;;;;;;;-0.44;88.31;94817.10;106663;1275;22514;-67
2023/02/04 05:48:35;;;;;;;6.30;4.30;;;;;;;-0.43;88.33;94816.60;106581;1260;22528;-68
2023/02/04 05:51:03;;;;;;;8.80;4.20;;;;;;;-0.41;88.39;94815.58;106588;1265;25613;-68
2023/02/04 05:53:31;;;;;;;8.40;4.40;;;;;;;-0.36;88.41;94814.59;106571;1275;22520;-68
2023/02/04 05:55:59;;;;;;;6.30;4.50;;;;;;;-0.32;88.14;94812.91;106546;1275;24354;-68
2023/02/04 05:58:32;;;;;;;7.50;4.00;;;;;;;-0.32;88.07;94806.34;106611;1275;25397;-68
2023/02/04 06:01:01;;;;;;;9.60;4.80;;;;;;;-0.30;88.11;94812.08;106584;1275;24052;-67
2023/02/04 06:03:31;;;;;;;5.40;3.30;;;;;;;-0.28;88.27;94812.95;106516;1275;22530;-67
2023/02/04 06:05:59;;;;;;;4.80;3.30;;;;;;;-0.22;88.21;94813.55;106932;1275;24350;-67
2023/02/04 06:08:27;;;;;;;4.00;2.70;;;;;;;-0.20;88.33;94818.75;106583;1275;22598;-67
2023/02/04 06:10:55;;;;;;;20.30;17.10;;;;;;;-0.16;88.26;94825.34;106603;1275;22639;-68
2023/02/04 06:13:24;;;;;;;6.70;3.60;;;;;;;-0.15;88.27;94830.72;106582;1275;25496;-67
2023/02/04 06:15:52;;;;;;;5.60;2.20;;;;;;;-0.11;88.22;94825.20;106513;1275;25459;-68
2023/02/04 06:18:20;;;;;;;14.20;7.00;;;;;;;0.01;88.50;94833.64;106559;1275;25176;-68
2023/02/04 06:20:48;;;;;;;48.00;21.50;;;;;;;0.11;88.29;94834.42;106642;1275;24350;-68
2023/02/04 06:23:16;;;;;;;76.00;32.70;;;;;;;0.11;87.73;94835.11;106592;1275;25227;-68
2023/02/04 06:25:46;;;;;;;76.80;31.80;;;;;;;0.15;87.85;94833.60;106586;1275;24384;-67
2023/02/04 06:28:15;;;;;;;49.60;21.50;;;;;;;0.24;87.18;94827.28;106590;1275;22532;-67
2023/02/04 06:30:43;;;;;;;35.70;15.80;;;;;;;0.31;87.32;94831.31;106650;1275;22532;-67
2023/02/04 06:33:11;;;;;;;32.50;15.60;;;;;;;0.35;87.10;94834.48;106584;1275;25396;-67
2023/02/04 06:35:39;;;;;;;27.70;14.40;;;;;;;0.43;87.31;94833.67;106593;1275;25322;-67
2023/02/04 06:38:07;;;;;;;36.00;17.40;;;;;;;0.52;87.52;94836.85;106609;1275;24263;-68
2023/02/04 06:40:35;;;;;;;25.20;11.30;;;;;;;0.54;86.91;94841.88;106569;1275;26660;-67
2023/02/04 06:43:04;;;;;;;26.20;11.30;;;;;;;0.58;87.17;94841.90;106609;1275;25400;-68
2023/02/04 06:45:32;;;;;;;9.40;5.60;;;;;;;0.57;86.62;94847.25;106568;1275;25285;-67
2023/02/04 06:48:00;;;;;;;7.10;3.80;;;;;;;0.54;86.24;94850.36;106535;1275;24638;-67
2023/02/04 06:50:28;;;;;;;25.50;14.50;;;;;;;0.57;86.49;94854.02;106902;1275;22468;-67
2023/02/04 06:52:57;;;;;;;53.80;27.40;;;;;;;0.57;86.37;94850.20;106579;1275;24230;-67
2023/02/04 06:55:25;;;;;;;38.40;19.90;;;;;;;0.60;86.62;94846.77;106575;1275;24328;-67
2023/02/04 06:57:53;;;;;;;20.10;10.10;;;;;;;0.67;86.83;94854.44;106569;1275;24299;-67
2023/02/04 07:00:21;;;;;;;11.10;5.90;;;;;;;0.72;86.94;94847.73;106440;1275;22523;-67
2023/02/04 07:02:49;;;;;;;11.50;6.40;;;;;;;0.75;86.79;94844.27;106596;1275;22590;-67
2023/02/04 07:05:18;;;;;;;8.50;4.60;;;;;;;0.78;87.02;94842.40;106656;1275;22645;-67
2023/02/04 07:07:46;;;;;;;8.30;4.50;;;;;;;0.82;86.98;94843.29;106653;1275;22606;-67
2023/02/04 07:10:16;;;;;;;21.30;11.00;;;;;;;0.87;86.89;94847.48;106450;1275;22550;-67
2023/02/04 07:12:44;;;;;;;19.10;11.20;;;;;;;0.93;86.81;94844.05;106620;1275;22543;-67
2023/02/04 07:15:12;;;;;;;15.60;8.30;;;;;;;1.00;86.77;94846.69;106596;1275;24237;-67
2023/02/04 07:17:41;;;;;;;6.40;4.70;;;;;;;1.03;86.37;94843.41;106635;1275;22528;-67
2023/02/04 07:20:10;;;;;;;5.50;3.40;;;;;;;1.06;86.46;94845.69;106494;1274;23022;-67
2023/02/04 07:22:38;;;;;;;6.40;2.80;;;;;;;1.09;86.48;94847.27;106660;1264;23129;-68
2023/02/04 07:25:09;;;;;;;5.20;2.90;;;;;;;1.17;86.95;94847.32;106831;1265;22535;-67
2023/02/04 07:27:37;;;;;;;7.30;4.20;;;;;;;1.23;86.79;94844.91;106597;1275;25406;-67
2023/02/04 07:30:05;;;;;;;11.00;6.60;;;;;;;1.30;86.38;94848.08;106558;1275;22753;-67
2023/02/04 07:32:34;;;;;;;11.50;7.00;;;;;;;1.37;86.32;94850.17;106588;1275;25464;-68
2023/02/04 07:35:02;;;;;;;15.90;9.70;;;;;;;1.47;86.27;94845.20;106540;1275;23707;-67
2023/02/04 07:37:30;;;;;;;17.60;10.40;;;;;;;1.59;85.88;94845.08;106582;1275;24184;-68
2023/02/04 07:39:58;;;;;;;18.60;10.70;;;;;;;1.68;85.45;94842.85;106585;1275;22622;-67
2023/02/04 07:42:27;;;;;;;25.10;13.90;;;;;;;1.78;85.29;94842.02;106571;1275;25466;-67
2023/02/04 07:44:59;;;;;;;21.70;12.30;;;;;;;1.91;85.29;94842.92;106651;1274;25368;-67
2023/02/04 07:47:28;;;;;;;38.50;21.20;;;;;;;2.01;84.73;94837.05;106600;1275;24303;-68
2023/02/04 07:49:56;;;;;;;60.70;29.40;;;;;;;2.12;84.96;94838.11;106560;1275;22529;-67
2023/02/04 07:52:24;;;;;;;36.40;19.70;;;;;;;2.33;85.60;94837.77;106976;1275;25221;-67
2023/02/04 07:54:52;;;;;;;18.00;9.20;;;;;;;2.54;84.74;94833.63;106886;1275;22520;-67
2023/02/04 07:57:20;;;;;;;24.20;13.40;;;;;;;2.69;83.97;94834.31;106554;1274;25391;-67
2023/02/04 07:59:49;;;;;;;12.10;6.60;;;;;;;2.83;84.12;94831.52;106611;1275;24842;-67
2023/02/04 08:02:17;;;;;;;10.80;5.60;;;;;;;2.98;83.66;94827.00;106573;1275;22525;-67
2023/02/04 08:04:45;;;;;;;8.90;5.50;;;;;;;3.19;83.24;94827.46;106583;1275;25319;-67
2023/02/04 08:07:13;;;;;;;20.30;13.50;;;;;;;3.43;82.93;94822.17;106621;1275;22599;-67
2023/02/04 08:09:41;;;;;;;17.80;8.10;;;;;;;3.61;80.34;94818.98;106592;1275;24381;-67
2023/02/04 08:12:10;;;;;;;13.80;6.60;;;;;;;3.81;79.78;94814.70;106623;1275;22529;-67
2023/02/04 08:14:38;;;;;;;6.10;3.60;;;;;;;3.99;78.93;94811.48;106585;1274;22529;-67
2023/02/04 08:17:06;;;;;;;13.50;5.80;;;;;;;4.08;76.39;94805.34;106684;1275;22527;-67
2023/02/04 08:19:34;;;;;;;20.40;10.10;;;;;;;4.18;76.61;94808.05;106619;1275;22520;-67
2023/02/04 08:22:02;;;;;;;15.20;6.80;;;;;;;4.16;75.50;94810.85;106643;1261;22612;-67
2023/02/04 08:24:30;;;;;;;10.80;5.00;;;;;;;4.09;74.89;94808.11;106623;1275;22639;-67
2023/02/04 08:26:58;;;;;;;10.90;4.60;;;;;;;3.94;74.34;94807.69;106613;1274;24239;-67
2023/02/04 08:29:26;;;;;;;11.90;5.20;;;;;;;3.71;74.31;94813.38;106616;1274;25242;-67
2023/02/04 08:31:55;;;;;;;4.90;3.10;;;;;;;3.52;74.59;94814.85;106597;1275;22546;-67
2023/02/04 08:34:23;;;;;;;7.90;3.10;;;;;;;3.31;74.97;94825.17;106648;1275;22520;-67
2023/02/04 08:36:51;;;;;;;3.80;2.70;;;;;;;3.16;75.06;94832.51;106696;1275;25607;-67
2023/02/04 08:39:20;;;;;;;3.30;2.70;;;;;;;3.11;75.63;94833.75;106952;1275;24254;-67
2023/02/04 08:41:50;;;;;;;3.40;2.30;;;;;;;3.01;75.89;94836.01;106651;1275;22528;-67
2023/02/04 08:44:18;;;;;;;4.30;3.00;;;;;;;2.90;76.30;94839.86;106669;1275;22613;-67
2023/02/04 08:46:46;;;;;;;6.50;3.80;;;;;;;2.87;76.65;94842.47;106582;1275;22827;-67
2023/02/04 08:49:14;;;;;;;7.10;3.10;;;;;;;2.85;77.04;94844.73;106585;1274;23397;-67
2023/02/04 08:51:42;;;;;;;2.80;2.20;;;;;;;2.85;77.19;94846.11;106568;1275;22519;-67
2023/02/04 08:54:10;;;;;;;4.10;2.70;;;;;;;2.90;77.22;94846.47;106632;1274;25243;-67
2023/02/04 08:56:38;;;;;;;4.70;3.20;;;;;;;3.04;77.14;94848.52;106623;1274;22538;-66
2023/02/04 08:59:07;;;;;;;4.30;3.10;;;;;;;3.16;76.98;94853.88;106609;1275;24229;-67
2023/02/04 09:01:35;;;;;;;8.60;3.70;;;;;;;3.38;76.82;94850.19;106624;1274;22547;-67
2023/02/04 09:04:03;;;;;;;6.60;4.00;;;;;;;3.57;75.73;94850.13;106630;1275;22595;-67
2023/02/04 09:06:31;;;;;;;7.60;4.10;;;;;;;3.68;74.87;94848.35;106601;1275;22554;-67
2023/02/04 09:08:59;;;;;;;6.20;3.90;;;;;;;3.77;74.33;94853.19;106621;1275;25470;-67
2023/02/04 09:11:27;;;;;;;8.20;5.00;;;;;;;3.82;74.37;94853.33;106597;1275;22526;-67
2023/02/04 09:13:56;;;;;;;9.60;5.30;;;;;;;3.92;74.30;94862.34;106530;1275;24246;-67
2023/02/04 09:16:24;;;;;;;7.20;3.30;;;;;;;3.94;73.75;94861.63;106714;1275;25354;-67
2023/02/04 09:18:52;;;;;;;8.80;5.10;;;;;;;4.00;73.89;94868.02;106609;1274;23951;-67
2023/02/04 09:21:21;;;;;;;4.60;3.10;;;;;;;3.97;73.65;94873.09;106619;1275;25330;-67
2023/02/04 09:23:49;;;;;;;6.40;3.60;;;;;;;3.84;73.68;94875.94;106667;1271;25339;-69
2023/02/04 09:26:17;;;;;;;9.30;4.50;;;;;;;3.76;73.72;94878.56;106638;1275;22523;-65
2023/02/04 09:28:47;;;;;;;11.70;6.50;;;;;;;3.67;73.80;94887.30;106662;1275;22531;-64
2023/02/04 09:31:16;;;;;;;12.70;6.90;;;;;;;3.62;74.50;94890.98;106857;1274;24238;-67
2023/02/04 09:33:45;;;;;;;16.00;6.70;;;;;;;3.62;74.79;94892.71;106568;1275;24879;-66
2023/02/04 09:36:13;;;;;;;12.80;6.30;;;;;;;3.59;75.06;94894.64;106596;1275;23790;-65
2023/02/04 09:38:41;;;;;;;6.70;3.20;;;;;;;3.55;75.21;94895.34;106627;1274;22523;-66
2023/02/04 09:41:11;;;;;;;8.70;4.20;;;;;;;3.38;75.41;94900.24;106592;1274;24048;-65
2023/02/04 09:43:43;;;;;;;3.40;2.30;;;;;;;3.29;75.94;94900.79;106644;1275;25475;-65
2023/02/04 09:46:23;;;;;;;3.80;2.20;;;;;;;3.18;76.53;94899.93;106883;1275;23211;-65
2023/02/04 09:48:51;;;;;;;4.30;3.20;;;;;;;3.01;77.47;94907.25;106985;1275;22573;-67
2023/02/04 09:51:22;;;;;;;7.10;4.40;;;;;;;2.87;78.01;94907.44;106870;1272;24209;-66
2023/02/04 09:53:53;;;;;;;10.10;5.80;;;;;;;2.83;78.51;94911.08;107032;1274;25405;-66
2023/02/04 09:56:27;;;;;;;9.40;6.00;;;;;;;2.76;78.65;94908.46;106708;1275;22524;-66
2023/02/04 09:58:55;;;;;;;4.90;3.90;;;;;;;2.58;79.36;94908.80;106606;1275;24350;-66
2023/02/04 10:01:26;;;;;;;5.70;3.30;;;;;;;2.42;80.40;94914.87;106618;1274;25468;-65
2023/02/04 10:04:00;;;;;;;4.90;3.20;;;;;;;2.27;81.19;94916.05;106614;1274;25684;-66
2023/02/04 10:06:28;;;;;;;5.90;3.70;;;;;;;2.18;81.76;94916.19;106639;1274;25285;-66
2023/02/04 10:08:56;;;;;;;5.70;4.40;;;;;;;2.08;82.32;94915.30;106617;1275;24245;-66
2023/02/04 10:11:26;;;;;;;9.00;5.70;;;;;;;2.09;82.41;94918.42;106572;1275;25325;-66
2023/02/04 10:13:55;;;;;;;8.90;6.20;;;;;;;2.08;82.41;94918.95;106973;1275;25406;-65
2023/02/04 10:16:34;;;;;;;7.60;5.40;;;;;;;2.09;82.65;94917.20;106662;1275;22541;-66
2023/02/04 10:19:06;;;;;;;4.40;3.40;;;;;;;2.13;82.69;94921.04;106687;1275;25354;-66
2023/02/04 10:21:35;;;;;;;5.10;3.80;;;;;;;2.21;82.78;94922.80;106646;1275;22650;-66
2023/02/04 10:24:10;;;;;;;6.80;5.20;;;;;;;2.31;82.78;94922.14;106599;1275;24319;-66
2023/02/04 10:26:38;;;;;;;4.70;3.60;;;;;;;2.44;82.75;94919.38;106660;1275;22671;-66
2023/02/04 10:29:13;;;;;;;4.90;3.30;;;;;;;2.50;82.31;94923.72;106634;1275;24392;-66
2023/02/04 10:31:45;;;;;;;5.00;3.40;;;;;;;2.60;82.45;94923.39;106613;1275;23527;-66
2023/02/04 10:34:22;;;;;;;4.60;3.10;;;;;;;2.73;82.15;94925.48;106626;1275;24226;-66
2023/02/04 10:36:53;;;;;;;5.00;3.80;;;;;;;2.78;81.65;94919.93;106619;1275;22693;-66
2023/02/04 10:39:24;;;;;;;4.20;3.50;;;;;;;2.90;81.74;94926.71;106625;1275;22531;-66
2023/02/04 10:41:58;;;;;;;5.00;3.70;;;;;;;2.96;81.19;94920.81;106908;1275;22657;-66
2023/02/04 10:44:30;;;;;;;;;;;;;;;2.95;80.81;94923.77;106671;1275;22796;-66
2023/02/04 10:47:05;;;;;;;5.50;3.80;;;;;;;2.90;80.78;94926.89;106590;1275;25223;-66
2023/02/04 10:49:33;;;;;;;6.20;4.10;;;;;;;2.89;80.68;94925.14;106688;1275;22605;-66
2023/02/04 10:52:12;;;;;;;7.00;4.60;;;;;;;2.83;80.66;94926.54;106649;1274;25527;-66
2023/02/04 10:54:41;;;;;;;5.40;4.20;;;;;;;2.72;81.00;94933.30;106679;1275;22543;-66
2023/02/04 10:57:21;;;;;;;6.10;4.10;;;;;;;2.68;81.13;94930.70;106773;1275;22671;-66
2023/02/04 10:59:52;;;;;;;8.40;5.20;;;;;;;2.56;81.52;94939.20;106545;1275;22526;-66
2023/02/04 11:02:32;;;;;;;10.70;6.90;;;;;;;2.48;81.60;94944.73;106640;1275;22524;-66
2023/02/04 11:05:01;;;;;;;19.70;9.40;;;;;;;2.38;81.92;94946.09;106626;1275;22579;-66
2023/02/04 11:07:30;;;;;;;7.30;5.20;;;;;;;2.28;82.24;94946.06;106605;1275;25328;-66
2023/02/04 11:09:58;;;;;;;4.80;3.60;;;;;;;2.15;82.95;94946.38;106718;1268;24492;-66
2023/02/04 11:12:52;;;;;;;15.60;10.50;;;;;;;2.08;83.33;94956.06;106609;1275;22527;-66
2023/02/04 11:15:39;;;;;;;7.20;5.10;;;;;;;1.96;83.29;94961.58;106597;1275;24273;-66
2023/02/04 11:18:13;;;;;;;10.30;7.00;;;;;;;1.81;83.95;94969.83;106603;1275;22537;-66
2023/02/04 11:20:41;;;;;;;16.50;11.60;;;;;;;1.72;84.52;94969.95;106666;1275;26508;-66
2023/02/04 11:23:33;;;;;;;15.00;9.60;;;;;;;1.71;84.61;94972.90;106590;1275;24239;-66
2023/02/04 11:26:21;;;;;;;7.40;5.40;;;;;;;1.70;84.80;94976.19;106588;1275;22527;-66
2023/02/04 11:28:58;;;;;;;4.60;3.40;;;;;;;1.73;84.89;94980.02;106670;1275;22778;-66
2023/02/04 11:31:40;;;;;;;9.00;6.60;;;;;;;1.71;85.07;94981.23;106641;1275;25394;-66
2023/02/04 11:34:25;;;;;;;6.50;5.00;;;;;;;1.74;85.00;94990.95;106619;1275;22518;-66
2023/02/04 11:36:58;;;;;;;12.20;7.00;;;;;;;1.72;84.86;94997.89;106685;1275;25413;-66
2023/02/04 11:39:41;;;;;;;10.20;6.50;;;;;;;1.65;85.01;94999.56;106707;1275;22542;-66
2023/02/04 11:42:23;;;;;;;6.50;5.00;;;;;;;1.62;85.17;95005.78;106692;1275;22727;-66
2023/02/04 11:44:57;;;;;;;6.70;5.00;;;;;;;1.57;85.35;95008.70;106679;1275;22538;-67
2023/02/04 11:47:27;;;;;;;6.20;4.90;;;;;;;1.50;85.70;95016.97;106652;1266;23891;-66
2023/02/04 11:50:00;;;;;;;3.80;3.00;;;;;;;1.49;85.86;95022.16;106623;1275;24389;-66